Terminal Aerodrome Forecast
Issued by NWS Sioux Falls, SD

Home | Current Version | Previous Version | Text Only | Print | Product List | Glossary Off
Versions: 1 2 3 4 5 6 7 8 9 10 11 12 13 14 15 16 17 18 19 20 21

000
FTUS43 KFSD 200522
TAFFSD
TAF
KFSD 200522Z 2006/2106 17010KT P6SM OVC012
     FM201100 17007KT 6SM BR OVC008
     FM201700 17012KT P6SM OVC012=

USA.gov is the U.S. government's official web portal to all federal, state and local government web resources and services.